sensor_id;sensor_type;location;lat;lon;timestamp;P1;durP1;ratioP1;P2;durP2;ratioP2
75993;SDS011;64680;53.800;9.988;2023-02-02T00:01:08;23.33;;;2.03;;
75993;SDS011;64680;53.800;9.988;2023-02-02T00:03:33;16.80;;;2.55;;
75993;SDS011;64680;53.800;9.988;2023-02-02T00:05:59;20.27;;;3.20;;
75993;SDS011;64680;53.800;9.988;2023-02-02T00:08:25;22.25;;;3.03;;
75993;SDS011;64680;53.800;9.988;2023-02-02T00:10:50;22.08;;;3.30;;
75993;SDS011;64680;53.800;9.988;2023-02-02T00:13:16;16.63;;;2.53;;
75993;SDS011;64680;53.800;9.988;2023-02-02T00:15:42;25.67;;;3.80;;
75993;SDS011;64680;53.800;9.988;2023-02-02T00:18:07;22.88;;;2.40;;
75993;SDS011;64680;53.800;9.988;2023-02-02T00:20:33;15.27;;;2.97;;
75993;SDS011;64680;53.800;9.988;2023-02-02T00:22:59;18.10;;;2.00;;
75993;SDS011;64680;53.800;9.988;2023-02-02T00:25:25;17.90;;;2.25;;
75993;SDS011;64680;53.800;9.988;2023-02-02T00:27:50;17.30;;;2.53;;
75993;SDS011;64680;53.800;9.988;2023-02-02T00:30:16;12.80;;;2.55;;
75993;SDS011;64680;53.800;9.988;2023-02-02T00:32:41;15.88;;;2.47;;
75993;SDS011;64680;53.800;9.988;2023-02-02T00:35:07;16.13;;;2.45;;
75993;SDS011;64680;53.800;9.988;2023-02-02T00:37:33;17.65;;;2.22;;
75993;SDS011;64680;53.800;9.988;2023-02-02T00:39:59;16.55;;;1.88;;
75993;SDS011;64680;53.800;9.988;2023-02-02T00:42:25;14.88;;;2.35;;
75993;SDS011;64680;53.800;9.988;2023-02-02T00:44:50;16.75;;;2.63;;
75993;SDS011;64680;53.800;9.988;2023-02-02T00:47:48;18.60;;;2.38;;
75993;SDS011;64680;53.800;9.988;2023-02-02T00:50:15;16.88;;;1.85;;
75993;SDS011;64680;53.800;9.988;2023-02-02T00:52:43;13.85;;;2.17;;
75993;SDS011;64680;53.800;9.988;2023-02-02T00:55:10;20.73;;;2.40;;
75993;SDS011;64680;53.800;9.988;2023-02-02T00:57:37;9.75;;;1.80;;
75993;SDS011;64680;53.800;9.988;2023-02-02T01:00:04;15.75;;;1.48;;
75993;SDS011;64680;53.800;9.988;2023-02-02T01:02:31;14.63;;;2.55;;
75993;SDS011;64680;53.800;9.988;2023-02-02T01:04:57;15.73;;;2.50;;
75993;SDS011;64680;53.800;9.988;2023-02-02T01:07:23;13.50;;;1.55;;
75993;SDS011;64680;53.800;9.988;2023-02-02T01:09:49;14.93;;;1.63;;
75993;SDS011;64680;53.800;9.988;2023-02-02T01:12:14;8.40;;;1.35;;
75993;SDS011;64680;53.800;9.988;2023-02-02T01:14:40;13.93;;;1.55;;
75993;SDS011;64680;53.800;9.988;2023-02-02T01:17:06;12.27;;;2.08;;
75993;SDS011;64680;53.800;9.988;2023-02-02T01:19:31;9.38;;;1.42;;
75993;SDS011;64680;53.800;9.988;2023-02-02T01:21:57;9.38;;;1.17;;
75993;SDS011;64680;53.800;9.988;2023-02-02T01:24:22;11.65;;;2.35;;
75993;SDS011;64680;53.800;9.988;2023-02-02T01:26:48;9.00;;;1.20;;
75993;SDS011;64680;53.800;9.988;2023-02-02T01:29:14;6.70;;;1.13;;
75993;SDS011;64680;53.800;9.988;2023-02-02T01:31:39;8.23;;;1.00;;
75993;SDS011;64680;53.800;9.988;2023-02-02T01:34:06;6.68;;;0.85;;
75993;SDS011;64680;53.800;9.988;2023-02-02T01:36:32;3.42;;;0.57;;
75993;SDS011;64680;53.800;9.988;2023-02-02T01:38:57;5.10;;;0.80;;
75993;SDS011;64680;53.800;9.988;2023-02-02T01:41:23;4.45;;;0.55;;
75993;SDS011;64680;53.800;9.988;2023-02-02T01:43:51;6.10;;;0.90;;
75993;SDS011;64680;53.800;9.988;2023-02-02T01:46:20;5.15;;;0.52;;
75993;SDS011;64680;53.800;9.988;2023-02-02T01:48:55;3.80;;;0.30;;
75993;SDS011;64680;53.800;9.988;2023-02-02T01:51:30;5.40;;;0.82;;
75993;SDS011;64680;53.800;9.988;2023-02-02T01:54:00;3.95;;;0.70;;
75993;SDS011;64680;53.800;9.988;2023-02-02T01:56:34;4.13;;;0.82;;
75993;SDS011;64680;53.800;9.988;2023-02-02T01:59:03;9.10;;;1.38;;
75993;SDS011;64680;53.800;9.988;2023-02-02T02:01:29;7.80;;;1.25;;
75993;SDS011;64680;53.800;9.988;2023-02-02T02:03:55;12.32;;;1.88;;
75993;SDS011;64680;53.800;9.988;2023-02-02T02:06:21;12.90;;;2.33;;
75993;SDS011;64680;53.800;9.988;2023-02-02T02:11:17;17.58;;;1.73;;
75993;SDS011;64680;53.800;9.988;2023-02-02T02:13:44;11.00;;;1.33;;
75993;SDS011;64680;53.800;9.988;2023-02-02T02:22:05;22.38;;;2.00;;
75993;SDS011;64680;53.800;9.988;2023-02-02T02:33:08;18.52;;;1.65;;
75993;SDS011;64680;53.800;9.988;2023-02-02T02:36:02;14.38;;;1.92;;
75993;SDS011;64680;53.800;9.988;2023-02-02T02:38:49;14.68;;;2.00;;
75993;SDS011;64680;53.800;9.988;2023-02-02T02:41:22;16.90;;;1.63;;
75993;SDS011;64680;53.800;9.988;2023-02-02T02:43:54;15.35;;;1.85;;
75993;SDS011;64680;53.800;9.988;2023-02-02T02:46:30;14.80;;;2.00;;
75993;SDS011;64680;53.800;9.988;2023-02-02T02:48:56;14.27;;;1.55;;
75993;SDS011;64680;53.800;9.988;2023-02-02T02:54:07;13.90;;;2.20;;
75993;SDS011;64680;53.800;9.988;2023-02-02T02:56:41;14.30;;;1.90;;
75993;SDS011;64680;53.800;9.988;2023-02-02T03:10:34;12.15;;;1.75;;
75993;SDS011;64680;53.800;9.988;2023-02-02T03:13:05;12.45;;;1.77;;
75993;SDS011;64680;53.800;9.988;2023-02-02T03:15:33;4.88;;;0.68;;
75993;SDS011;64680;53.800;9.988;2023-02-02T03:17:58;8.63;;;0.70;;
75993;SDS011;64680;53.800;9.988;2023-02-02T03:20:24;11.35;;;1.17;;
75993;SDS011;64680;53.800;9.988;2023-02-02T03:22:50;8.05;;;1.55;;
75993;SDS011;64680;53.800;9.988;2023-02-02T03:25:15;9.00;;;0.68;;
75993;SDS011;64680;53.800;9.988;2023-02-02T03:27:41;7.13;;;0.80;;
75993;SDS011;64680;53.800;9.988;2023-02-02T03:30:07;7.57;;;0.80;;
75993;SDS011;64680;53.800;9.988;2023-02-02T03:32:35;7.50;;;0.82;;
75993;SDS011;64680;53.800;9.988;2023-02-02T03:35:01;7.43;;;0.93;;
75993;SDS011;64680;53.800;9.988;2023-02-02T03:37:27;3.08;;;0.85;;
75993;SDS011;64680;53.800;9.988;2023-02-02T03:39:53;7.93;;;0.90;;
75993;SDS011;64680;53.800;9.988;2023-02-02T03:42:19;7.72;;;0.90;;
75993;SDS011;64680;53.800;9.988;2023-02-02T03:44:44;8.55;;;0.75;;
75993;SDS011;64680;53.800;9.988;2023-02-02T03:47:10;6.38;;;0.60;;
75993;SDS011;64680;53.800;9.988;2023-02-02T03:49:35;9.13;;;0.82;;
75993;SDS011;64680;53.800;9.988;2023-02-02T03:52:01;8.98;;;0.85;;
75993;SDS011;64680;53.800;9.988;2023-02-02T03:54:29;8.40;;;1.27;;
75993;SDS011;64680;53.800;9.988;2023-02-02T03:56:54;8.40;;;1.08;;
75993;SDS011;64680;53.800;9.988;2023-02-02T03:59:20;11.55;;;1.52;;
75993;SDS011;64680;53.800;9.988;2023-02-02T04:01:46;12.18;;;1.48;;
75993;SDS011;64680;53.800;9.988;2023-02-02T04:04:11;9.82;;;1.80;;
75993;SDS011;64680;53.800;9.988;2023-02-02T04:06:37;8.63;;;1.30;;
75993;SDS011;64680;53.800;9.988;2023-02-02T04:09:02;8.10;;;1.27;;
75993;SDS011;64680;53.800;9.988;2023-02-02T04:11:28;9.15;;;1.25;;
75993;SDS011;64680;53.800;9.988;2023-02-02T04:13:54;10.13;;;2.05;;
75993;SDS011;64680;53.800;9.988;2023-02-02T04:16:19;6.38;;;1.45;;
75993;SDS011;64680;53.800;9.988;2023-02-02T04:18:45;8.95;;;1.02;;
75993;SDS011;64680;53.800;9.988;2023-02-02T04:21:11;7.88;;;1.13;;
75993;SDS011;64680;53.800;9.988;2023-02-02T04:23:36;9.18;;;1.27;;
75993;SDS011;64680;53.800;9.988;2023-02-02T04:26:02;12.35;;;1.45;;
75993;SDS011;64680;53.800;9.988;2023-02-02T04:28:28;9.32;;;1.40;;
75993;SDS011;64680;53.800;9.988;2023-02-02T04:30:54;12.93;;;1.50;;
75993;SDS011;64680;53.800;9.988;2023-02-02T04:33:21;9.40;;;1.45;;
75993;SDS011;64680;53.800;9.988;2023-02-02T04:35:48;18.85;;;2.00;;
75993;SDS011;64680;53.800;9.988;2023-02-02T04:38:13;13.88;;;1.63;;
75993;SDS011;64680;53.800;9.988;2023-02-02T04:40:40;9.75;;;1.33;;
75993;SDS011;64680;53.800;9.988;2023-02-02T04:43:06;18.33;;;1.65;;
75993;SDS011;64680;53.800;9.988;2023-02-02T04:45:32;9.38;;;1.38;;
75993;SDS011;64680;53.800;9.988;2023-02-02T04:47:58;15.00;;;1.63;;
75993;SDS011;64680;53.800;9.988;2023-02-02T04:50:23;12.45;;;1.50;;
75993;SDS011;64680;53.800;9.988;2023-02-02T04:52:49;11.50;;;1.40;;
75993;SDS011;64680;53.800;9.988;2023-02-02T04:55:15;12.30;;;0.93;;
75993;SDS011;64680;53.800;9.988;2023-02-02T04:57:40;13.18;;;1.05;;
75993;SDS011;64680;53.800;9.988;2023-02-02T05:00:06;10.02;;;1.50;;
75993;SDS011;64680;53.800;9.988;2023-02-02T05:02:37;12.68;;;1.10;;
75993;SDS011;64680;53.800;9.988;2023-02-02T05:05:04;11.70;;;1.17;;
75993;SDS011;64680;53.800;9.988;2023-02-02T05:07:31;9.60;;;1.38;;
75993;SDS011;64680;53.800;9.988;2023-02-02T05:09:56;9.55;;;1.35;;
75993;SDS011;64680;53.800;9.988;2023-02-02T05:12:22;10.07;;;1.15;;
75993;SDS011;64680;53.800;9.988;2023-02-02T05:14:47;8.63;;;1.67;;
75993;SDS011;64680;53.800;9.988;2023-02-02T05:17:13;14.05;;;1.83;;
75993;SDS011;64680;53.800;9.988;2023-02-02T05:19:39;12.38;;;1.90;;
75993;SDS011;64680;53.800;9.988;2023-02-02T05:22:05;17.35;;;2.00;;
75993;SDS011;64680;53.800;9.988;2023-02-02T05:24:31;15.98;;;2.00;;
75993;SDS011;64680;53.800;9.988;2023-02-02T05:26:56;18.92;;;2.60;;
75993;SDS011;64680;53.800;9.988;2023-02-02T05:29:24;11.80;;;1.10;;
75993;SDS011;64680;53.800;9.988;2023-02-02T05:31:51;13.60;;;2.72;;
75993;SDS011;64680;53.800;9.988;2023-02-02T05:34:17;22.20;;;2.33;;
75993;SDS011;64680;53.800;9.988;2023-02-02T05:36:42;18.75;;;1.73;;
75993;SDS011;64680;53.800;9.988;2023-02-02T05:39:08;18.05;;;1.58;;
75993;SDS011;64680;53.800;9.988;2023-02-02T05:41:34;14.30;;;2.53;;
75993;SDS011;64680;53.800;9.988;2023-02-02T05:43:59;13.02;;;1.35;;
75993;SDS011;64680;53.800;9.988;2023-02-02T05:46:25;14.82;;;2.03;;
75993;SDS011;64680;53.800;9.988;2023-02-02T05:48:51;18.63;;;1.67;;
75993;SDS011;64680;53.800;9.988;2023-02-02T05:51:21;13.48;;;1.60;;
75993;SDS011;64680;53.800;9.988;2023-02-02T05:53:51;12.63;;;2.15;;
75993;SDS011;64680;53.800;9.988;2023-02-02T05:56:17;14.00;;;1.42;;
75993;SDS011;64680;53.800;9.988;2023-02-02T05:58:42;13.57;;;1.55;;
75993;SDS011;64680;53.800;9.988;2023-02-02T06:01:08;15.55;;;2.40;;
75993;SDS011;64680;53.800;9.988;2023-02-02T06:03:34;16.75;;;2.28;;
75993;SDS011;64680;53.800;9.988;2023-02-02T06:06:00;11.60;;;1.55;;
75993;SDS011;64680;53.800;9.988;2023-02-02T06:08:25;17.75;;;1.88;;
75993;SDS011;64680;53.800;9.988;2023-02-02T06:10:51;15.80;;;1.63;;
75993;SDS011;64680;53.800;9.988;2023-02-02T06:13:16;12.80;;;1.42;;
75993;SDS011;64680;53.800;9.988;2023-02-02T06:15:42;18.52;;;2.17;;
75993;SDS011;64680;53.800;9.988;2023-02-02T06:18:08;12.55;;;1.83;;
75993;SDS011;64680;53.800;9.988;2023-02-02T06:20:34;16.27;;;2.20;;
75993;SDS011;64680;53.800;9.988;2023-02-02T06:23:00;17.13;;;1.50;;
75993;SDS011;64680;53.800;9.988;2023-02-02T06:25:25;11.45;;;1.40;;
75993;SDS011;64680;53.800;9.988;2023-02-02T06:27:55;14.52;;;1.73;;
75993;SDS011;64680;53.800;9.988;2023-02-02T06:30:22;23.85;;;1.67;;
75993;SDS011;64680;53.800;9.988;2023-02-02T06:32:47;14.60;;;1.27;;
75993;SDS011;64680;53.800;9.988;2023-02-02T06:35:13;14.73;;;1.75;;
75993;SDS011;64680;53.800;9.988;2023-02-02T06:37:39;17.20;;;1.73;;
75993;SDS011;64680;53.800;9.988;2023-02-02T06:40:06;18.48;;;1.85;;
75993;SDS011;64680;53.800;9.988;2023-02-02T06:42:32;16.63;;;1.90;;
75993;SDS011;64680;53.800;9.988;2023-02-02T06:44:58;12.35;;;1.63;;
75993;SDS011;64680;53.800;9.988;2023-02-02T06:47:24;12.75;;;1.70;;
75993;SDS011;64680;53.800;9.988;2023-02-02T06:49:49;13.10;;;1.58;;
75993;SDS011;64680;53.800;9.988;2023-02-02T06:52:15;13.88;;;1.98;;
75993;SDS011;64680;53.800;9.988;2023-02-02T06:54:41;12.88;;;2.05;;
75993;SDS011;64680;53.800;9.988;2023-02-02T06:57:06;9.38;;;1.23;;
75993;SDS011;64680;53.800;9.988;2023-02-02T06:59:33;13.60;;;1.77;;
75993;SDS011;64680;53.800;9.988;2023-02-02T07:01:58;8.65;;;1.80;;
75993;SDS011;64680;53.800;9.988;2023-02-02T07:04:24;9.57;;;1.83;;
75993;SDS011;64680;53.800;9.988;2023-02-02T07:06:50;16.75;;;1.50;;
75993;SDS011;64680;53.800;9.988;2023-02-02T07:09:15;10.85;;;1.20;;
75993;SDS011;64680;53.800;9.988;2023-02-02T07:11:41;9.77;;;1.50;;
75993;SDS011;64680;53.800;9.988;2023-02-02T07:14:07;13.40;;;2.63;;
75993;SDS011;64680;53.800;9.988;2023-02-02T07:16:33;9.27;;;1.38;;
75993;SDS011;64680;53.800;9.988;2023-02-02T07:18:59;8.70;;;1.40;;
75993;SDS011;64680;53.800;9.988;2023-02-02T07:21:25;10.10;;;1.05;;
75993;SDS011;64680;53.800;9.988;2023-02-02T07:23:59;12.27;;;1.35;;
75993;SDS011;64680;53.800;9.988;2023-02-02T07:26:26;6.60;;;0.90;;
75993;SDS011;64680;53.800;9.988;2023-02-02T07:28:52;14.43;;;1.35;;
75993;SDS011;64680;53.800;9.988;2023-02-02T07:31:19;9.15;;;1.00;;
75993;SDS011;64680;53.800;9.988;2023-02-02T07:33:46;9.02;;;1.27;;
75993;SDS011;64680;53.800;9.988;2023-02-02T07:36:13;15.18;;;1.17;;
75993;SDS011;64680;53.800;9.988;2023-02-02T07:38:41;10.43;;;1.38;;
75993;SDS011;64680;53.800;9.988;2023-02-02T07:41:08;9.75;;;1.48;;
75993;SDS011;64680;53.800;9.988;2023-02-02T07:43:33;7.78;;;1.17;;
75993;SDS011;64680;53.800;9.988;2023-02-02T07:46:03;11.60;;;1.33;;
75993;SDS011;64680;53.800;9.988;2023-02-02T07:48:32;10.13;;;1.15;;
75993;SDS011;64680;53.800;9.988;2023-02-02T07:50:58;10.00;;;1.08;;
75993;SDS011;64680;53.800;9.988;2023-02-02T07:53:28;9.70;;;1.25;;
75993;SDS011;64680;53.800;9.988;2023-02-02T07:56:10;5.60;;;1.10;;
75993;SDS011;64680;53.800;9.988;2023-02-02T07:58:38;6.75;;;1.20;;
75993;SDS011;64680;53.800;9.988;2023-02-02T08:01:05;7.60;;;1.23;;
75993;SDS011;64680;53.800;9.988;2023-02-02T08:03:32;9.75;;;1.17;;
75993;SDS011;64680;53.800;9.988;2023-02-02T08:06:00;9.25;;;1.30;;
75993;SDS011;64680;53.800;9.988;2023-02-02T08:08:32;6.78;;;1.23;;
75993;SDS011;64680;53.800;9.988;2023-02-02T08:10:57;6.05;;;0.63;;
75993;SDS011;64680;53.800;9.988;2023-02-02T08:13:23;5.60;;;0.82;;
75993;SDS011;64680;53.800;9.988;2023-02-02T08:15:48;7.93;;;0.90;;
75993;SDS011;64680;53.800;9.988;2023-02-02T08:18:14;5.60;;;1.15;;
75993;SDS011;64680;53.800;9.988;2023-02-02T08:20:40;9.98;;;1.25;;
75993;SDS011;64680;53.800;9.988;2023-02-02T08:23:06;7.68;;;1.27;;
75993;SDS011;64680;53.800;9.988;2023-02-02T08:25:39;6.63;;;1.33;;
75993;SDS011;64680;53.800;9.988;2023-02-02T08:28:05;6.40;;;1.10;;
75993;SDS011;64680;53.800;9.988;2023-02-02T08:30:31;8.48;;;1.70;;
75993;SDS011;64680;53.800;9.988;2023-02-02T08:32:58;11.88;;;1.00;;
75993;SDS011;64680;53.800;9.988;2023-02-02T08:35:24;11.35;;;1.48;;
75993;SDS011;64680;53.800;9.988;2023-02-02T08:37:49;14.05;;;1.77;;
75993;SDS011;64680;53.800;9.988;2023-02-02T08:40:15;8.82;;;1.27;;
75993;SDS011;64680;53.800;9.988;2023-02-02T08:42:40;7.10;;;1.65;;
75993;SDS011;64680;53.800;9.988;2023-02-02T08:45:07;10.10;;;1.58;;
75993;SDS011;64680;53.800;9.988;2023-02-02T08:47:33;8.20;;;1.10;;
75993;SDS011;64680;53.800;9.988;2023-02-02T08:49:58;12.27;;;1.23;;
75993;SDS011;64680;53.800;9.988;2023-02-02T08:52:24;11.00;;;1.52;;
75993;SDS011;64680;53.800;9.988;2023-02-02T08:54:50;7.70;;;1.40;;
75993;SDS011;64680;53.800;9.988;2023-02-02T08:57:15;8.13;;;1.00;;
75993;SDS011;64680;53.800;9.988;2023-02-02T08:59:41;9.68;;;1.25;;
75993;SDS011;64680;53.800;9.988;2023-02-02T09:02:07;12.25;;;1.10;;
75993;SDS011;64680;53.800;9.988;2023-02-02T09:04:34;6.82;;;0.95;;
75993;SDS011;64680;53.800;9.988;2023-02-02T09:07:00;12.45;;;1.77;;
75993;SDS011;64680;53.800;9.988;2023-02-02T09:09:26;14.07;;;1.63;;
75993;SDS011;64680;53.800;9.988;2023-02-02T09:11:51;9.35;;;1.20;;
75993;SDS011;64680;53.800;9.988;2023-02-02T09:14:17;10.82;;;1.05;;
75993;SDS011;64680;53.800;9.988;2023-02-02T09:16:42;9.63;;;1.23;;
75993;SDS011;64680;53.800;9.988;2023-02-02T09:19:09;8.95;;;1.25;;
75993;SDS011;64680;53.800;9.988;2023-02-02T09:21:35;4.57;;;1.00;;
75993;SDS011;64680;53.800;9.988;2023-02-02T09:24:04;9.65;;;1.40;;
75993;SDS011;64680;53.800;9.988;2023-02-02T09:26:32;15.40;;;1.92;;
75993;SDS011;64680;53.800;9.988;2023-02-02T09:28:58;12.63;;;1.58;;
75993;SDS011;64680;53.800;9.988;2023-02-02T09:31:26;10.68;;;1.27;;
75993;SDS011;64680;53.800;9.988;2023-02-02T09:33:53;10.43;;;1.23;;
75993;SDS011;64680;53.800;9.988;2023-02-02T09:36:20;10.15;;;1.35;;
75993;SDS011;64680;53.800;9.988;2023-02-02T09:38:47;13.18;;;1.92;;
75993;SDS011;64680;53.800;9.988;2023-02-02T09:43:51;11.98;;;1.55;;
75993;SDS011;64680;53.800;9.988;2023-02-02T09:49:15;13.38;;;1.83;;
75993;SDS011;64680;53.800;9.988;2023-02-02T09:51:48;9.90;;;1.50;;
75993;SDS011;64680;53.800;9.988;2023-02-02T09:54:55;13.35;;;1.80;;
75993;SDS011;64680;53.800;9.988;2023-02-02T09:57:47;13.40;;;1.27;;
75993;SDS011;64680;53.800;9.988;2023-02-02T10:00:24;11.27;;;1.15;;
75993;SDS011;64680;53.800;9.988;2023-02-02T10:02:56;7.53;;;1.27;;
75993;SDS011;64680;53.800;9.988;2023-02-02T10:05:30;6.68;;;1.10;;
75993;SDS011;64680;53.800;9.988;2023-02-02T10:08:09;8.48;;;1.00;;
75993;SDS011;64680;53.800;9.988;2023-02-02T10:10:42;9.60;;;1.10;;
75993;SDS011;64680;53.800;9.988;2023-02-02T10:13:12;6.28;;;0.73;;
75993;SDS011;64680;53.800;9.988;2023-02-02T10:15:47;7.65;;;1.10;;
75993;SDS011;64680;53.800;9.988;2023-02-02T10:24:22;9.02;;;0.80;;
75993;SDS011;64680;53.800;9.988;2023-02-02T10:26:53;11.68;;;1.02;;
75993;SDS011;64680;53.800;9.988;2023-02-02T10:34:41;6.22;;;0.80;;
75993;SDS011;64680;53.800;9.988;2023-02-02T10:39:55;8.18;;;1.23;;
75993;SDS011;64680;53.800;9.988;2023-02-02T10:45:03;7.55;;;0.70;;
75993;SDS011;64680;53.800;9.988;2023-02-02T10:52:38;5.47;;;0.55;;
75993;SDS011;64680;53.800;9.988;2023-02-02T10:57:52;6.68;;;0.88;;
75993;SDS011;64680;53.800;9.988;2023-02-02T11:03:12;4.30;;;0.68;;
75993;SDS011;64680;53.800;9.988;2023-02-02T11:05:40;4.95;;;0.57;;
75993;SDS011;64680;53.800;9.988;2023-02-02T11:08:33;5.78;;;0.77;;
75993;SDS011;64680;53.800;9.988;2023-02-02T11:16:34;3.63;;;0.52;;
75993;SDS011;64680;53.800;9.988;2023-02-02T11:19:20;7.15;;;0.77;;
75993;SDS011;64680;53.800;9.988;2023-02-02T11:21:49;6.78;;;1.38;;
75993;SDS011;64680;53.800;9.988;2023-02-02T11:24:21;6.88;;;1.05;;
75993;SDS011;64680;53.800;9.988;2023-02-02T11:26:56;2.50;;;0.38;;
75993;SDS011;64680;53.800;9.988;2023-02-02T11:29:29;5.18;;;0.50;;
75993;SDS011;64680;53.800;9.988;2023-02-02T11:37:28;3.90;;;0.40;;
75993;SDS011;64680;53.800;9.988;2023-02-02T11:40:01;5.50;;;0.60;;
75993;SDS011;64680;53.800;9.988;2023-02-02T11:42:48;7.40;;;0.75;;
75993;SDS011;64680;53.800;9.988;2023-02-02T11:45:16;7.68;;;0.82;;
75993;SDS011;64680;53.800;9.988;2023-02-02T11:47:44;3.80;;;0.50;;
75993;SDS011;64680;53.800;9.988;2023-02-02T11:50:18;4.00;;;0.50;;
75993;SDS011;64680;53.800;9.988;2023-02-02T11:52:51;4.40;;;0.47;;
75993;SDS011;64680;53.800;9.988;2023-02-02T11:55:20;3.72;;;0.52;;
75993;SDS011;64680;53.800;9.988;2023-02-02T12:00:49;9.35;;;0.80;;
75993;SDS011;64680;53.800;9.988;2023-02-02T12:03:22;7.15;;;0.60;;
75993;SDS011;64680;53.800;9.988;2023-02-02T12:05:53;2.80;;;0.43;;
75993;SDS011;64680;53.800;9.988;2023-02-02T12:08:18;5.95;;;0.80;;
75993;SDS011;64680;53.800;9.988;2023-02-02T12:11:19;4.45;;;0.55;;
75993;SDS011;64680;53.800;9.988;2023-02-02T12:13:46;4.65;;;0.80;;
75993;SDS011;64680;53.800;9.988;2023-02-02T12:16:27;3.25;;;0.43;;
75993;SDS011;64680;53.800;9.988;2023-02-02T12:24:52;10.05;;;0.70;;
75993;SDS011;64680;53.800;9.988;2023-02-02T12:30:42;6.68;;;0.50;;
75993;SDS011;64680;53.800;9.988;2023-02-02T12:44:09;4.40;;;0.77;;
75993;SDS011;64680;53.800;9.988;2023-02-02T13:04:05;5.60;;;0.60;;
75993;SDS011;64680;53.800;9.988;2023-02-02T13:12:12;6.75;;;0.93;;
75993;SDS011;64680;53.800;9.988;2023-02-02T13:14:43;5.20;;;0.50;;
75993;SDS011;64680;53.800;9.988;2023-02-02T13:17:24;6.18;;;0.85;;
75993;SDS011;64680;53.800;9.988;2023-02-02T13:22:26;2.85;;;0.50;;
75993;SDS011;64680;53.800;9.988;2023-02-02T13:24:56;3.47;;;0.50;;
75993;SDS011;64680;53.800;9.988;2023-02-02T13:27:28;5.85;;;0.65;;
75993;SDS011;64680;53.800;9.988;2023-02-02T13:30:55;6.38;;;0.88;;
75993;SDS011;64680;53.800;9.988;2023-02-02T13:32:55;6.50;;;1.08;;
75993;SDS011;64680;53.800;9.988;2023-02-02T13:35:24;5.57;;;0.95;;
75993;SDS011;64680;53.800;9.988;2023-02-02T13:38:13;6.30;;;1.88;;
75993;SDS011;64680;53.800;9.988;2023-02-02T13:40:54;2.72;;;0.60;;
75993;SDS011;64680;53.800;9.988;2023-02-02T13:43:45;3.00;;;0.45;;
75993;SDS011;64680;53.800;9.988;2023-02-02T13:49:07;4.82;;;1.13;;
75993;SDS011;64680;53.800;9.988;2023-02-02T13:51:48;2.65;;;0.52;;
75993;SDS011;64680;53.800;9.988;2023-02-02T13:57:45;5.22;;;0.43;;
75993;SDS011;64680;53.800;9.988;2023-02-02T14:00:36;5.85;;;0.45;;
75993;SDS011;64680;53.800;9.988;2023-02-02T14:03:20;3.85;;;0.45;;
75993;SDS011;64680;53.800;9.988;2023-02-02T14:06:04;1.90;;;0.47;;
75993;SDS011;64680;53.800;9.988;2023-02-02T14:08:51;4.22;;;0.30;;
75993;SDS011;64680;53.800;9.988;2023-02-02T14:11:24;2.67;;;0.43;;
75993;SDS011;64680;53.800;9.988;2023-02-02T14:14:17;5.45;;;1.00;;
75993;SDS011;64680;53.800;9.988;2023-02-02T14:17:07;7.13;;;0.68;;
75993;SDS011;64680;53.800;9.988;2023-02-02T14:19:46;3.30;;;0.63;;
75993;SDS011;64680;53.800;9.988;2023-02-02T14:22:17;3.47;;;0.52;;
75993;SDS011;64680;53.800;9.988;2023-02-02T14:25:02;5.72;;;1.35;;
75993;SDS011;64680;53.800;9.988;2023-02-02T14:27:55;4.35;;;0.70;;
75993;SDS011;64680;53.800;9.988;2023-02-02T14:30:23;4.68;;;0.50;;
75993;SDS011;64680;53.800;9.988;2023-02-02T14:32:53;7.00;;;0.68;;
75993;SDS011;64680;53.800;9.988;2023-02-02T14:41:30;2.55;;;0.40;;
75993;SDS011;64680;53.800;9.988;2023-02-02T14:44:26;3.40;;;0.57;;
75993;SDS011;64680;53.800;9.988;2023-02-02T14:46:52;2.63;;;0.85;;
75993;SDS011;64680;53.800;9.988;2023-02-02T14:49:19;3.15;;;0.70;;
75993;SDS011;64680;53.800;9.988;2023-02-02T14:51:55;3.72;;;0.70;;
75993;SDS011;64680;53.800;9.988;2023-02-02T14:54:26;2.53;;;0.60;;
75993;SDS011;64680;53.800;9.988;2023-02-02T14:59:46;2.67;;;0.40;;
75993;SDS011;64680;53.800;9.988;2023-02-02T15:02:31;1.30;;;0.40;;
75993;SDS011;64680;53.800;9.988;2023-02-02T15:07:53;4.40;;;0.52;;
75993;SDS011;64680;53.800;9.988;2023-02-02T15:13:21;4.95;;;1.13;;
75993;SDS011;64680;53.800;9.988;2023-02-02T15:15:50;4.28;;;1.52;;
75993;SDS011;64680;53.800;9.988;2023-02-02T15:18:27;4.20;;;1.73;;
75993;SDS011;64680;53.800;9.988;2023-02-02T15:20:57;5.40;;;1.83;;
75993;SDS011;64680;53.800;9.988;2023-02-02T15:23:41;5.20;;;2.25;;
75993;SDS011;64680;53.800;9.988;2023-02-02T15:26:19;9.13;;;3.53;;
75993;SDS011;64680;53.800;9.988;2023-02-02T15:31:34;12.98;;;4.70;;
75993;SDS011;64680;53.800;9.988;2023-02-02T15:34:10;19.95;;;6.80;;
75993;SDS011;64680;53.800;9.988;2023-02-02T15:36:38;15.52;;;5.85;;
75993;SDS011;64680;53.800;9.988;2023-02-02T15:39:12;14.00;;;4.13;;
75993;SDS011;64680;53.800;9.988;2023-02-02T15:41:46;6.30;;;2.28;;
75993;SDS011;64680;53.800;9.988;2023-02-02T15:44:34;5.30;;;1.50;;
75993;SDS011;64680;53.800;9.988;2023-02-02T15:47:00;2.60;;;1.05;;
75993;SDS011;64680;53.800;9.988;2023-02-02T15:49:31;6.57;;;1.00;;
75993;SDS011;64680;53.800;9.988;2023-02-02T15:52:00;7.55;;;1.75;;
75993;SDS011;64680;53.800;9.988;2023-02-02T15:54:35;4.53;;;1.60;;
75993;SDS011;64680;53.800;9.988;2023-02-02T15:57:19;4.68;;;0.90;;
75993;SDS011;64680;53.800;9.988;2023-02-02T16:00:00;7.78;;;1.95;;
75993;SDS011;64680;53.800;9.988;2023-02-02T16:02:46;3.97;;;2.00;;
75993;SDS011;64680;53.800;9.988;2023-02-02T16:08:01;4.22;;;0.90;;
75993;SDS011;64680;53.800;9.988;2023-02-02T16:10:30;2.10;;;0.68;;
75993;SDS011;64680;53.800;9.988;2023-02-02T16:12:56;4.72;;;0.73;;
75993;SDS011;64680;53.800;9.988;2023-02-02T16:15:24;3.65;;;1.20;;
75993;SDS011;64680;53.800;9.988;2023-02-02T16:18:01;7.82;;;1.00;;
75993;SDS011;64680;53.800;9.988;2023-02-02T16:20:30;6.32;;;0.98;;
75993;SDS011;64680;53.800;9.988;2023-02-02T16:22:57;3.25;;;0.70;;
75993;SDS011;64680;53.800;9.988;2023-02-02T16:25:26;4.80;;;0.77;;
75993;SDS011;64680;53.800;9.988;2023-02-02T16:27:55;3.10;;;0.60;;
75993;SDS011;64680;53.800;9.988;2023-02-02T16:30:26;4.50;;;1.08;;
75993;SDS011;64680;53.800;9.988;2023-02-02T16:32:54;4.47;;;1.08;;
75993;SDS011;64680;53.800;9.988;2023-02-02T16:35:33;9.52;;;3.20;;
75993;SDS011;64680;53.800;9.988;2023-02-02T16:38:14;8.15;;;2.50;;
75993;SDS011;64680;53.800;9.988;2023-02-02T16:41:04;6.82;;;2.10;;
75993;SDS011;64680;53.800;9.988;2023-02-02T16:43:35;7.30;;;1.45;;
75993;SDS011;64680;53.800;9.988;2023-02-02T16:51:03;3.85;;;0.75;;
75993;SDS011;64680;53.800;9.988;2023-02-02T16:53:29;3.72;;;0.98;;
75993;SDS011;64680;53.800;9.988;2023-02-02T16:55:55;6.25;;;1.02;;
75993;SDS011;64680;53.800;9.988;2023-02-02T16:58:22;5.60;;;1.27;;
75993;SDS011;64680;53.800;9.988;2023-02-02T17:03:48;8.10;;;0.98;;
75993;SDS011;64680;53.800;9.988;2023-02-02T17:06:23;7.15;;;1.20;;
75993;SDS011;64680;53.800;9.988;2023-02-02T17:08:51;6.13;;;1.27;;
75993;SDS011;64680;53.800;9.988;2023-02-02T17:11:24;5.70;;;0.75;;
75993;SDS011;64680;53.800;9.988;2023-02-02T17:13:52;9.77;;;2.80;;
75993;SDS011;64680;53.800;9.988;2023-02-02T17:16:19;13.68;;;4.55;;
75993;SDS011;64680;53.800;9.988;2023-02-02T17:18:46;14.18;;;5.68;;
75993;SDS011;64680;53.800;9.988;2023-02-02T17:21:13;12.88;;;5.53;;
75993;SDS011;64680;53.800;9.988;2023-02-02T17:23:41;14.98;;;5.95;;
75993;SDS011;64680;53.800;9.988;2023-02-02T17:26:08;15.10;;;6.30;;
75993;SDS011;64680;53.800;9.988;2023-02-02T17:28:35;16.48;;;8.93;;
75993;SDS011;64680;53.800;9.988;2023-02-02T17:33:36;6.95;;;3.38;;
75993;SDS011;64680;53.800;9.988;2023-02-02T17:36:02;9.35;;;2.28;;
75993;SDS011;64680;53.800;9.988;2023-02-02T17:38:28;7.68;;;2.30;;